^^

Meteo Aereoporti Centro-Italia

 

 
LIRZ - Perugia S.Egidio (208 m.)
Dati ricevuti: 24/09/2020 14:20
Qualche nuvola
Qualche nuvola
 Vento da SSW
Vento: SSW 13 km/h
TEMPERATURA: 26°C
P.to di Rugiada: 17°C
Umidità: 58%
Pressione: 1013 hPa
Nuvole: Qualche nuvola
Visibilità: 10 km
Dettagli Nuvole: Qualche nuvola 1067 m
2020/09/24 12:20 LIRZ 241220Z AUTO 21007KT 170V240 9999 FEW035/// 26/17 Q1013
 
LIPY - Ancona Falconara (12 m.)
Dati ricevuti: 24/09/2020 14:20
Qualche nuvola
Qualche nuvola
 Vento da direzione variabile
Vento: direzione variabile 9 km/h
TEMPERATURA: 27°C
Indice di Calore: 28°C
P.to di Rugiada: 17°C
Umidità: 54%
Pressione: 1011 hPa
Nuvole: Qualche nuvola
Visibilità: 10 km
Dettagli Nuvole: Qualche nuvola 1707 m
2020/09/24 12:20 LIPY 241220Z AUTO VRB05KT 9999 FEW056/// 27/17 Q1011
 
LIPR - Rimini Miramare (12 m.)
Dati ricevuti: 24/09/2020 14:20
Poco nuvoloso
Poco nuvoloso
 Vento da S
Vento: S 11 km/h
TEMPERATURA: 26°C
P.to di Rugiada: 15°C
Umidità: 51%
Pressione: 1011 hPa
Nuvole: Poco nuvoloso
Visibilità: 10 km
Dettagli Nuvole: Poco nuvoloso 1676 m
2020/09/24 12:20 LIPR 241220Z 18006KT 9999 SCT055 26/15 Q1011
 
LIRF - Roma Fiumicino (2 m.)
Dati ricevuti: 24/09/2020 14:20
Molto nuvoloso
Molto nuvoloso
 Vento da S
Vento: S 13 km/h
TEMPERATURA: 26°C
P.to di Rugiada: 19°C
Umidità: 65%
Pressione: 1013 hPa
Nuvole: Molto nuvoloso
Visibilità: 10 km
Dettagli Nuvole: Qualche nuvola 762 m
Poco nuvoloso 914 m
Molto nuvoloso 1372 m
2020/09/24 12:20 LIRF 241220Z 18007KT 9999 FEW025CB SCT030 BKN045 26/19 Q1013 TEMPO 4000 TSRA
 
LIRA - Roma Ciampino (129 m.)
Dati ricevuti: 24/09/2020 14:20
Poco nuvoloso
Poco nuvoloso
 Vento da SSW
Vento: SSW 17 km/h
TEMPERATURA: 27°C
Indice di Calore: 28°C
P.to di Rugiada: 17°C
Umidità: 54%
Pressione: 1014 hPa
Nuvole: Poco nuvoloso
Visibilità: 10 km
Dettagli Nuvole: Qualche nuvola 914 m
Poco nuvoloso 1219 m
2020/09/24 12:20 LIRA 241220Z 21009KT 170V260 9999 FEW030 SCT040 27/17 Q1014
 
LIRU - Roma Urbe (17 m.)
Dati ricevuti: 24/09/2020 13:50
Poco nuvoloso
Poco nuvoloso
 Vento da ESE
Vento: ESE 7 km/h
TEMPERATURA: 23°C
P.to di Rugiada: 20°C
Umidità: 83%
Pressione: 1013 hPa
Nuvole: Poco nuvoloso
Visibilità: 10 km
Dettagli Nuvole: Poco nuvoloso 762 m
2020/09/24 11:50 LIRU 241150Z 11004KT 060V130 9999 SCT025 23/20 Q1013
 
LIVF - Frontone (570 m.)
Dati ricevuti: 24/09/2020 05:55
Dati non aggiornati
Qualche nuvola
Qualche nuvola
 Vento da SSW
Vento: SSW 11 km/h
TEMPERATURA: 17°C
P.to di Rugiada: 13°C
Umidità: 77%
Pressione: 1011 hPa
Nuvole: Qualche nuvola
Visibilità: 10 km
Dettagli Nuvole: Qualche nuvola 884 m
2020/09/24 03:55 LIVF 240355Z 21006KT 9999 FEW029 17/13 Q1011
 
LIRQ - Firenze Peretola (40 m.)
Dati ricevuti: 24/09/2020 14:20
Qualche nuvola
Qualche nuvola
 Vento da W
Vento: W 7 km/h
TEMPERATURA: 25°C
P.to di Rugiada: 19°C
Umidità: 69%
Pressione: 1012 hPa
Nuvole: Qualche nuvola
Visibilità: 10 km
Dettagli Nuvole: Qualche nuvola 1067 m
2020/09/24 12:20 LIRQ 241220Z 28004KT 210V340 9999 FEW035TCU 25/19 Q1012
 
LIBP - Pescara (10 m.)
Dati ricevuti: 24/09/2020 14:20
Molto nuvoloso
Molto nuvoloso
 Vento da E
Vento: E 19 km/h
TEMPERATURA: 26°C
P.to di Rugiada: 14°C
Umidità: 48%
Pressione: 1012 hPa
Nuvole: Molto nuvoloso
Visibilità: 10 km
Dettagli Nuvole: Molto nuvoloso 2530 m
2020/09/24 12:20 LIBP 241220Z AUTO 08010KT 9999 BKN083/// 26/14 Q1012
 
LIRV - Viterbo (300 m.)
Dati ricevuti: 24/09/2020 13:55
Qualche nuvola
Qualche nuvola
 Vento da SW
Vento: SW 15 km/h
TEMPERATURA: 23°C
P.to di Rugiada: 18°C
Umidità: 74%
Pressione: 1014 hPa
Nuvole: Qualche nuvola
Visibilità: 10 km
Dettagli Nuvole: Molto nuvoloso 732 m
Qualche nuvola 1067 m
2020/09/24 11:55 LIRV 241155Z 22008KT 9999 BKN024 FEW035CB 23/18 Q1014
 
LIQN - Rieti (389 m.)
Dati ricevuti: 24/09/2020 13:50
Qualche nuvola
Qualche nuvola
 Vento da SSE
Vento: SSE 13 km/h
TEMPERATURA: 24°C
P.to di Rugiada: 15°C
Umidità: 57%
Pressione: 1014 hPa
Nuvole: Qualche nuvola
Visibilità: 10 km
Dettagli Nuvole: Qualche nuvola 1372 m
2020/09/24 11:50 LIQN 241150Z 16007KT 9999 FEW045TCU 24/15 Q1014
 
LIRG - Guidonia -RM- (88 m.)
Dati ricevuti: 24/09/2020 13:55
Rain showers, Poco nuvoloso
Rain showers, Poco nuvoloso
 Vento da WNW
Vento: WNW 9 km/h
TEMPERATURA: 23°C
P.to di Rugiada: 21°C
Umidità: 89%
Pressione: 1014 hPa
Condizioni generali: Rain Showers
Nuvole: Poco nuvoloso
Visibilità: 7 km
Dettagli Nuvole: Poco nuvoloso 610 m
Poco nuvoloso 914 m
2020/09/24 11:55 LIRG 241155Z 30005KT 240V310 7000 SHRA SCT020TCU SCT030 23/21 Q1014
 
LIRK - Terminillo -RI-(1874 m.)
Dati ricevuti: 24/09/2020 13:55

 Vento da direzione variabile
Vento: direzione variabile 11 km/h
TEMPERATURA: 10°C
Raffreddamento da Vento: 8°C
P.to di Rugiada: 10°C
Umidità: 100%
Pressione: 1021 hPa
2020/09/24 11:55 LIRK 241155Z AUTO VRB06KT //// 10/10 Q1021
 
LIPK - Forlì (27 m.)
Dati ricevuti: 24/09/2020 13:50
Poco nuvoloso
Poco nuvoloso
 Vento da SW
Vento: SW 11 km/h
TEMPERATURA: 28°C
Indice di Calore: 28°C
P.to di Rugiada: 16°C
Umidità: 48%
Pressione: 1011 hPa
Nuvole: Poco nuvoloso
Visibilità: 10 km
Dettagli Nuvole: Poco nuvoloso 914 m
2020/09/24 11:50 LIPK 241150Z 23006KT 9999 SCT030 28/16 Q1011
 
LIRS - Grosseto (5 m.)
Dati ricevuti: 24/09/2020 13:55
Molto nuvoloso
Molto nuvoloso
 Vento da SSE
Vento: SSE 17 km/h
TEMPERATURA: 26°C
P.to di Rugiada: 18°C
Umidità: 61%
Pressione: 1012 hPa
Nuvole: Molto nuvoloso
Visibilità: 10 km
Dettagli Nuvole: Molto nuvoloso 914 m
2020/09/24 11:55 LIRS 241155Z 16009KT 9999 BKN030 26/18 Q1012
 
LIRP - Pisa S.Giusto (2 m.)
Dati ricevuti: 24/09/2020 14:15
Temporali nelle vicinanze, Poco nuvoloso
Temporali nelle vicinanze, Poco nuvoloso
 Vento da N
Vento: N 22 km/h, Raffica: 41 km/h
TEMPERATURA: 20°C
P.to di Rugiada: 17°C
Umidità: 83%
Pressione: 1012 hPa
Condizioni generali: Nearby Thunderstorm
Nuvole: Poco nuvoloso
Visibilità: 10 km
Dettagli Nuvole: Poco nuvoloso 610 m
Qualche nuvola 762 m
Poco nuvoloso 1067 m
2020/09/24 12:15 LIRP 241215Z 01012G22KT 9999 4000NE VCTS SCT020 FEW025CB SCT035 20/17 Q1012 NOSIG